sensor_id;sensor_type;location;lat;lon;timestamp;temperature;humidity
6810;DHT22;3443;48.812;9.112;2023-03-11T00:00:11;3.10;99.90
6810;DHT22;3443;48.812;9.112;2023-03-11T00:02:42;3.00;99.90
6810;DHT22;3443;48.812;9.112;2023-03-11T00:05:15;3.00;99.90
6810;DHT22;3443;48.812;9.112;2023-03-11T00:07:41;3.00;99.90
6810;DHT22;3443;48.812;9.112;2023-03-11T00:10:09;2.80;99.90
6810;DHT22;3443;48.812;9.112;2023-03-11T00:12:38;2.80;99.90
6810;DHT22;3443;48.812;9.112;2023-03-11T00:15:03;2.80;99.90
6810;DHT22;3443;48.812;9.112;2023-03-11T00:17:29;2.80;99.90
6810;DHT22;3443;48.812;9.112;2023-03-11T00:19:55;2.70;99.90
6810;DHT22;3443;48.812;9.112;2023-03-11T00:22:22;2.70;99.90
6810;DHT22;3443;48.812;9.112;2023-03-11T00:24:47;2.70;99.90
6810;DHT22;3443;48.812;9.112;2023-03-11T00:27:13;2.70;99.90
6810;DHT22;3443;48.812;9.112;2023-03-11T00:29:38;2.70;99.90
6810;DHT22;3443;48.812;9.112;2023-03-11T00:32:04;2.70;99.90
6810;DHT22;3443;48.812;9.112;2023-03-11T00:34:30;2.70;99.90
6810;DHT22;3443;48.812;9.112;2023-03-11T00:36:55;2.60;99.90
6810;DHT22;3443;48.812;9.112;2023-03-11T00:39:21;2.70;99.90
6810;DHT22;3443;48.812;9.112;2023-03-11T00:41:47;2.70;99.90
6810;DHT22;3443;48.812;9.112;2023-03-11T00:44:13;2.70;99.90
6810;DHT22;3443;48.812;9.112;2023-03-11T00:46:39;2.60;99.90
6810;DHT22;3443;48.812;9.112;2023-03-11T00:49:04;2.60;99.90
6810;DHT22;3443;48.812;9.112;2023-03-11T00:51:30;2.60;99.90
6810;DHT22;3443;48.812;9.112;2023-03-11T00:53:57;2.50;99.90
6810;DHT22;3443;48.812;9.112;2023-03-11T00:56:24;2.50;99.90
6810;DHT22;3443;48.812;9.112;2023-03-11T00:58:50;2.50;99.90
6810;DHT22;3443;48.812;9.112;2023-03-11T01:01:17;2.40;99.90
6810;DHT22;3443;48.812;9.112;2023-03-11T01:03:43;2.40;99.90
6810;DHT22;3443;48.812;9.112;2023-03-11T01:06:09;2.40;99.90
6810;DHT22;3443;48.812;9.112;2023-03-11T01:08:36;2.40;99.90
6810;DHT22;3443;48.812;9.112;2023-03-11T01:11:02;2.40;99.90
6810;DHT22;3443;48.812;9.112;2023-03-11T01:13:28;2.40;99.90
6810;DHT22;3443;48.812;9.112;2023-03-11T01:15:54;2.40;99.90
6810;DHT22;3443;48.812;9.112;2023-03-11T01:18:20;2.40;99.90
6810;DHT22;3443;48.812;9.112;2023-03-11T01:20:46;2.30;99.90
6810;DHT22;3443;48.812;9.112;2023-03-11T01:23:13;2.30;99.90
6810;DHT22;3443;48.812;9.112;2023-03-11T01:25:39;2.20;99.90
6810;DHT22;3443;48.812;9.112;2023-03-11T01:28:05;2.20;99.90
6810;DHT22;3443;48.812;9.112;2023-03-11T01:30:33;2.20;99.90
6810;DHT22;3443;48.812;9.112;2023-03-11T01:33:00;2.20;99.90
6810;DHT22;3443;48.812;9.112;2023-03-11T01:35:27;2.20;99.90
6810;DHT22;3443;48.812;9.112;2023-03-11T01:37:53;2.20;99.90
6810;DHT22;3443;48.812;9.112;2023-03-11T01:40:33;2.20;99.90
6810;DHT22;3443;48.812;9.112;2023-03-11T01:43:04;2.20;99.90
6810;DHT22;3443;48.812;9.112;2023-03-11T01:46:04;2.20;99.90
6810;DHT22;3443;48.812;9.112;2023-03-11T01:48:28;2.10;99.90
6810;DHT22;3443;48.812;9.112;2023-03-11T01:50:54;2.10;99.90
6810;DHT22;3443;48.812;9.112;2023-03-11T01:53:21;2.10;99.90
6810;DHT22;3443;48.812;9.112;2023-03-11T01:55:47;2.10;99.90
6810;DHT22;3443;48.812;9.112;2023-03-11T01:58:26;2.20;99.90
6810;DHT22;3443;48.812;9.112;2023-03-11T02:00:53;2.10;99.90
6810;DHT22;3443;48.812;9.112;2023-03-11T02:03:28;2.00;99.90
6810;DHT22;3443;48.812;9.112;2023-03-11T02:05:55;1.90;99.90
6810;DHT22;3443;48.812;9.112;2023-03-11T02:08:22;1.90;99.90
6810;DHT22;3443;48.812;9.112;2023-03-11T02:10:49;1.80;99.90
6810;DHT22;3443;48.812;9.112;2023-03-11T02:13:16;1.80;99.90
6810;DHT22;3443;48.812;9.112;2023-03-11T02:15:42;1.80;99.90
6810;DHT22;3443;48.812;9.112;2023-03-11T02:18:08;1.90;99.90
6810;DHT22;3443;48.812;9.112;2023-03-11T02:23:08;1.90;99.90
6810;DHT22;3443;48.812;9.112;2023-03-11T02:25:44;1.90;99.90
6810;DHT22;3443;48.812;9.112;2023-03-11T02:28:14;1.90;99.90
6810;DHT22;3443;48.812;9.112;2023-03-11T02:30:43;1.80;99.90
6810;DHT22;3443;48.812;9.112;2023-03-11T02:33:09;1.80;99.90
6810;DHT22;3443;48.812;9.112;2023-03-11T02:35:36;1.70;99.90
6810;DHT22;3443;48.812;9.112;2023-03-11T02:38:01;1.70;99.90
6810;DHT22;3443;48.812;9.112;2023-03-11T02:43:04;1.60;99.90
6810;DHT22;3443;48.812;9.112;2023-03-11T02:45:30;1.50;99.90
6810;DHT22;3443;48.812;9.112;2023-03-11T02:47:57;1.40;99.90
6810;DHT22;3443;48.812;9.112;2023-03-11T02:50:24;1.40;99.90
6810;DHT22;3443;48.812;9.112;2023-03-11T02:52:51;1.40;99.90
6810;DHT22;3443;48.812;9.112;2023-03-11T02:55:18;1.30;99.90
6810;DHT22;3443;48.812;9.112;2023-03-11T02:57:45;1.20;99.90
6810;DHT22;3443;48.812;9.112;2023-03-11T03:00:12;1.30;99.90
6810;DHT22;3443;48.812;9.112;2023-03-11T03:02:43;1.20;99.90
6810;DHT22;3443;48.812;9.112;2023-03-11T03:05:10;1.20;99.90
6810;DHT22;3443;48.812;9.112;2023-03-11T03:07:37;1.20;99.90
6810;DHT22;3443;48.812;9.112;2023-03-11T03:10:04;1.10;99.90
6810;DHT22;3443;48.812;9.112;2023-03-11T03:12:30;1.10;99.90
6810;DHT22;3443;48.812;9.112;2023-03-11T03:14:55;1.10;99.90
6810;DHT22;3443;48.812;9.112;2023-03-11T03:17:22;1.10;99.90
6810;DHT22;3443;48.812;9.112;2023-03-11T03:19:48;1.10;99.90
6810;DHT22;3443;48.812;9.112;2023-03-11T03:22:14;1.00;99.90
6810;DHT22;3443;48.812;9.112;2023-03-11T03:24:39;1.00;99.90
6810;DHT22;3443;48.812;9.112;2023-03-11T03:27:05;0.90;99.90
6810;DHT22;3443;48.812;9.112;2023-03-11T03:29:31;0.90;99.90
6810;DHT22;3443;48.812;9.112;2023-03-11T03:31:56;0.90;99.90
6810;DHT22;3443;48.812;9.112;2023-03-11T03:34:22;0.90;99.90
6810;DHT22;3443;48.812;9.112;2023-03-11T03:36:48;0.90;99.90
6810;DHT22;3443;48.812;9.112;2023-03-11T03:39:14;0.90;99.90
6810;DHT22;3443;48.812;9.112;2023-03-11T03:41:40;0.80;99.90
6810;DHT22;3443;48.812;9.112;2023-03-11T03:44:05;0.90;99.90
6810;DHT22;3443;48.812;9.112;2023-03-11T03:46:31;0.80;99.90
6810;DHT22;3443;48.812;9.112;2023-03-11T03:48:56;0.80;99.90
6810;DHT22;3443;48.812;9.112;2023-03-11T03:51:22;0.70;99.90
6810;DHT22;3443;48.812;9.112;2023-03-11T03:53:47;0.70;99.90
6810;DHT22;3443;48.812;9.112;2023-03-11T03:56:16;0.70;99.90
6810;DHT22;3443;48.812;9.112;2023-03-11T03:58:41;1.00;99.90
6810;DHT22;3443;48.812;9.112;2023-03-11T04:01:08;0.70;99.90
6810;DHT22;3443;48.812;9.112;2023-03-11T04:03:35;0.60;99.90
6810;DHT22;3443;48.812;9.112;2023-03-11T04:06:22;0.70;99.90
6810;DHT22;3443;48.812;9.112;2023-03-11T04:08:50;0.70;99.90
6810;DHT22;3443;48.812;9.112;2023-03-11T04:11:16;0.70;99.90
6810;DHT22;3443;48.812;9.112;2023-03-11T04:13:41;0.70;99.90
6810;DHT22;3443;48.812;9.112;2023-03-11T04:16:19;0.70;99.90
6810;DHT22;3443;48.812;9.112;2023-03-11T04:18:45;0.70;99.90
6810;DHT22;3443;48.812;9.112;2023-03-11T04:21:10;0.70;99.90
6810;DHT22;3443;48.812;9.112;2023-03-11T04:23:36;0.70;99.90
6810;DHT22;3443;48.812;9.112;2023-03-11T04:26:02;0.70;99.90
6810;DHT22;3443;48.812;9.112;2023-03-11T04:28:28;0.60;99.90
6810;DHT22;3443;48.812;9.112;2023-03-11T04:30:53;0.50;99.90
6810;DHT22;3443;48.812;9.112;2023-03-11T04:33:19;0.50;99.90
6810;DHT22;3443;48.812;9.112;2023-03-11T04:35:45;0.50;99.90
6810;DHT22;3443;48.812;9.112;2023-03-11T04:38:10;0.40;99.90
6810;DHT22;3443;48.812;9.112;2023-03-11T04:40:39;0.40;99.90
6810;DHT22;3443;48.812;9.112;2023-03-11T04:43:05;0.40;99.90
6810;DHT22;3443;48.812;9.112;2023-03-11T04:45:31;0.40;99.90
6810;DHT22;3443;48.812;9.112;2023-03-11T04:47:57;0.40;99.90
6810;DHT22;3443;48.812;9.112;2023-03-11T04:50:23;0.40;99.90
6810;DHT22;3443;48.812;9.112;2023-03-11T04:52:48;0.50;99.90
6810;DHT22;3443;48.812;9.112;2023-03-11T04:55:14;0.50;99.90
6810;DHT22;3443;48.812;9.112;2023-03-11T04:57:41;0.40;99.90
6810;DHT22;3443;48.812;9.112;2023-03-11T05:00:09;0.30;99.90
6810;DHT22;3443;48.812;9.112;2023-03-11T05:02:36;0.30;99.90
6810;DHT22;3443;48.812;9.112;2023-03-11T05:05:02;0.30;99.90
6810;DHT22;3443;48.812;9.112;2023-03-11T05:07:28;0.20;99.90
6810;DHT22;3443;48.812;9.112;2023-03-11T05:09:54;0.30;99.90
6810;DHT22;3443;48.812;9.112;2023-03-11T05:12:19;0.30;99.90
6810;DHT22;3443;48.812;9.112;2023-03-11T05:14:45;0.30;99.90
6810;DHT22;3443;48.812;9.112;2023-03-11T05:17:10;0.40;99.90
6810;DHT22;3443;48.812;9.112;2023-03-11T05:19:38;0.40;99.90
6810;DHT22;3443;48.812;9.112;2023-03-11T05:22:04;0.40;99.90
6810;DHT22;3443;48.812;9.112;2023-03-11T05:24:30;0.40;99.90
6810;DHT22;3443;48.812;9.112;2023-03-11T05:26:56;0.40;99.90
6810;DHT22;3443;48.812;9.112;2023-03-11T05:29:22;0.40;99.90
6810;DHT22;3443;48.812;9.112;2023-03-11T05:31:48;0.40;99.90
6810;DHT22;3443;48.812;9.112;2023-03-11T05:34:14;0.40;99.90
6810;DHT22;3443;48.812;9.112;2023-03-11T05:36:40;0.40;99.90
6810;DHT22;3443;48.812;9.112;2023-03-11T05:39:06;0.40;99.90
6810;DHT22;3443;48.812;9.112;2023-03-11T05:41:32;0.30;99.90
6810;DHT22;3443;48.812;9.112;2023-03-11T05:43:58;0.30;99.90
6810;DHT22;3443;48.812;9.112;2023-03-11T05:46:24;0.20;99.90
6810;DHT22;3443;48.812;9.112;2023-03-11T05:48:50;0.20;99.90
6810;DHT22;3443;48.812;9.112;2023-03-11T05:51:15;0.20;99.90
6810;DHT22;3443;48.812;9.112;2023-03-11T05:53:43;0.20;99.90
6810;DHT22;3443;48.812;9.112;2023-03-11T05:56:16;0.20;99.90
6810;DHT22;3443;48.812;9.112;2023-03-11T05:58:42;0.20;99.90
6810;DHT22;3443;48.812;9.112;2023-03-11T06:01:12;0.20;99.90
6810;DHT22;3443;48.812;9.112;2023-03-11T06:03:39;0.10;99.90
6810;DHT22;3443;48.812;9.112;2023-03-11T06:06:06;0.10;99.90
6810;DHT22;3443;48.812;9.112;2023-03-11T06:08:33;0.10;99.90
6810;DHT22;3443;48.812;9.112;2023-03-11T06:11:08;0.10;99.90
6810;DHT22;3443;48.812;9.112;2023-03-11T06:13:35;0.10;99.90
6810;DHT22;3443;48.812;9.112;2023-03-11T06:16:02;0.10;99.90
6810;DHT22;3443;48.812;9.112;2023-03-11T06:18:28;0.10;99.90
6810;DHT22;3443;48.812;9.112;2023-03-11T06:20:57;0.10;99.90
6810;DHT22;3443;48.812;9.112;2023-03-11T06:23:23;0.10;99.90
6810;DHT22;3443;48.812;9.112;2023-03-11T06:26:04;0.20;99.90
6810;DHT22;3443;48.812;9.112;2023-03-11T06:28:30;0.30;99.90
6810;DHT22;3443;48.812;9.112;2023-03-11T06:30:56;0.40;99.90
6810;DHT22;3443;48.812;9.112;2023-03-11T06:33:30;0.50;99.90
6810;DHT22;3443;48.812;9.112;2023-03-11T06:36:00;0.50;99.90
6810;DHT22;3443;48.812;9.112;2023-03-11T06:38:26;0.50;99.90
6810;DHT22;3443;48.812;9.112;2023-03-11T06:40:51;0.60;99.90
6810;DHT22;3443;48.812;9.112;2023-03-11T06:43:17;0.60;99.90
6810;DHT22;3443;48.812;9.112;2023-03-11T06:45:43;0.60;99.90
6810;DHT22;3443;48.812;9.112;2023-03-11T06:48:09;0.50;99.90
6810;DHT22;3443;48.812;9.112;2023-03-11T06:50:34;0.50;99.90
6810;DHT22;3443;48.812;9.112;2023-03-11T06:53:00;0.50;99.90
6810;DHT22;3443;48.812;9.112;2023-03-11T06:55:27;0.50;99.90
6810;DHT22;3443;48.812;9.112;2023-03-11T06:57:53;0.50;99.90
6810;DHT22;3443;48.812;9.112;2023-03-11T07:00:18;0.50;99.90
6810;DHT22;3443;48.812;9.112;2023-03-11T07:02:44;0.50;99.90
6810;DHT22;3443;48.812;9.112;2023-03-11T07:05:10;0.50;99.90
6810;DHT22;3443;48.812;9.112;2023-03-11T07:07:36;0.50;99.90
6810;DHT22;3443;48.812;9.112;2023-03-11T07:10:03;0.60;99.90
6810;DHT22;3443;48.812;9.112;2023-03-11T07:12:29;0.60;99.90
6810;DHT22;3443;48.812;9.112;2023-03-11T07:14:55;0.60;99.90
6810;DHT22;3443;48.812;9.112;2023-03-11T07:17:21;0.70;99.90
6810;DHT22;3443;48.812;9.112;2023-03-11T07:19:47;0.80;99.90
6810;DHT22;3443;48.812;9.112;2023-03-11T07:22:12;0.80;99.90
6810;DHT22;3443;48.812;9.112;2023-03-11T07:24:38;0.80;99.90
6810;DHT22;3443;48.812;9.112;2023-03-11T07:27:04;0.80;99.90
6810;DHT22;3443;48.812;9.112;2023-03-11T07:29:30;0.80;99.90
6810;DHT22;3443;48.812;9.112;2023-03-11T07:31:55;0.80;99.90
6810;DHT22;3443;48.812;9.112;2023-03-11T07:34:21;0.90;99.90
6810;DHT22;3443;48.812;9.112;2023-03-11T07:36:46;0.90;99.90
6810;DHT22;3443;48.812;9.112;2023-03-11T07:39:15;1.00;99.90
6810;DHT22;3443;48.812;9.112;2023-03-11T07:41:41;1.00;99.90
6810;DHT22;3443;48.812;9.112;2023-03-11T07:44:06;1.10;99.90
6810;DHT22;3443;48.812;9.112;2023-03-11T07:46:32;1.20;99.90
6810;DHT22;3443;48.812;9.112;2023-03-11T07:48:59;1.30;99.90
6810;DHT22;3443;48.812;9.112;2023-03-11T07:51:27;1.30;99.90
6810;DHT22;3443;48.812;9.112;2023-03-11T07:53:54;1.40;99.90
6810;DHT22;3443;48.812;9.112;2023-03-11T07:56:22;1.50;99.90
6810;DHT22;3443;48.812;9.112;2023-03-11T07:58:49;1.60;99.90
6810;DHT22;3443;48.812;9.112;2023-03-11T08:01:17;1.70;99.90
6810;DHT22;3443;48.812;9.112;2023-03-11T08:03:45;1.90;99.90
6810;DHT22;3443;48.812;9.112;2023-03-11T08:06:19;1.90;99.90
6810;DHT22;3443;48.812;9.112;2023-03-11T08:08:45;2.00;99.90
6810;DHT22;3443;48.812;9.112;2023-03-11T08:11:12;2.10;99.90
6810;DHT22;3443;48.812;9.112;2023-03-11T08:13:39;2.10;99.90
6810;DHT22;3443;48.812;9.112;2023-03-11T08:16:06;2.20;99.90
6810;DHT22;3443;48.812;9.112;2023-03-11T08:18:33;2.20;99.90
6810;DHT22;3443;48.812;9.112;2023-03-11T08:21:03;2.20;99.90
6810;DHT22;3443;48.812;9.112;2023-03-11T08:23:28;2.40;99.90
6810;DHT22;3443;48.812;9.112;2023-03-11T08:25:54;2.50;99.90
6810;DHT22;3443;48.812;9.112;2023-03-11T08:28:19;2.60;99.90
6810;DHT22;3443;48.812;9.112;2023-03-11T08:30:45;2.60;99.90
6810;DHT22;3443;48.812;9.112;2023-03-11T08:33:10;2.70;99.90
6810;DHT22;3443;48.812;9.112;2023-03-11T08:35:36;2.80;99.90
6810;DHT22;3443;48.812;9.112;2023-03-11T08:38:02;2.80;99.90
6810;DHT22;3443;48.812;9.112;2023-03-11T08:40:27;2.60;99.90
6810;DHT22;3443;48.812;9.112;2023-03-11T08:42:54;2.50;99.90
6810;DHT22;3443;48.812;9.112;2023-03-11T08:45:20;2.30;99.90
6810;DHT22;3443;48.812;9.112;2023-03-11T08:47:46;2.40;99.90
6810;DHT22;3443;48.812;9.112;2023-03-11T08:50:14;2.50;99.90
6810;DHT22;3443;48.812;9.112;2023-03-11T08:52:40;2.60;99.90
6810;DHT22;3443;48.812;9.112;2023-03-11T08:55:06;2.80;99.90
6810;DHT22;3443;48.812;9.112;2023-03-11T08:57:33;3.20;99.90
6810;DHT22;3443;48.812;9.112;2023-03-11T08:59:59;3.30;99.90
6810;DHT22;3443;48.812;9.112;2023-03-11T09:02:25;3.50;99.90
6810;DHT22;3443;48.812;9.112;2023-03-11T09:04:51;3.70;99.90
6810;DHT22;3443;48.812;9.112;2023-03-11T09:07:17;3.80;99.90
6810;DHT22;3443;48.812;9.112;2023-03-11T09:09:43;3.80;99.90
6810;DHT22;3443;48.812;9.112;2023-03-11T09:12:09;3.80;99.90
6810;DHT22;3443;48.812;9.112;2023-03-11T09:14:40;3.90;99.90
6810;DHT22;3443;48.812;9.112;2023-03-11T09:17:06;4.20;99.90
6810;DHT22;3443;48.812;9.112;2023-03-11T09:19:32;4.30;99.90
6810;DHT22;3443;48.812;9.112;2023-03-11T09:22:02;4.50;99.90
6810;DHT22;3443;48.812;9.112;2023-03-11T09:24:28;4.50;99.90
6810;DHT22;3443;48.812;9.112;2023-03-11T09:26:54;4.10;99.90
6810;DHT22;3443;48.812;9.112;2023-03-11T09:29:19;3.80;99.90
6810;DHT22;3443;48.812;9.112;2023-03-11T09:31:45;3.70;99.90
6810;DHT22;3443;48.812;9.112;2023-03-11T09:34:12;4.10;99.90
6810;DHT22;3443;48.812;9.112;2023-03-11T09:36:40;4.30;99.90
6810;DHT22;3443;48.812;9.112;2023-03-11T09:39:06;4.60;99.90
6810;DHT22;3443;48.812;9.112;2023-03-11T09:44:40;4.50;99.90
6810;DHT22;3443;48.812;9.112;2023-03-11T09:50:29;4.00;99.90
6810;DHT22;3443;48.812;9.112;2023-03-11T10:01:02;3.40;99.90
6810;DHT22;3443;48.812;9.112;2023-03-11T10:03:32;3.40;99.90
6810;DHT22;3443;48.812;9.112;2023-03-11T10:06:11;3.70;99.90
6810;DHT22;3443;48.812;9.112;2023-03-11T10:14:34;4.50;99.90
6810;DHT22;3443;48.812;9.112;2023-03-11T10:17:34;4.20;99.90
6810;DHT22;3443;48.812;9.112;2023-03-11T10:20:20;4.20;99.90
6810;DHT22;3443;48.812;9.112;2023-03-11T10:23:20;4.10;99.90
6810;DHT22;3443;48.812;9.112;2023-03-11T10:26:04;4.00;99.90
6810;DHT22;3443;48.812;9.112;2023-03-11T10:28:44;4.00;99.90
6810;DHT22;3443;48.812;9.112;2023-03-11T10:31:27;4.30;99.90
6810;DHT22;3443;48.812;9.112;2023-03-11T10:34:24;4.50;99.90
6810;DHT22;3443;48.812;9.112;2023-03-11T10:37:03;4.60;99.90
6810;DHT22;3443;48.812;9.112;2023-03-11T10:39:32;4.80;99.90
6810;DHT22;3443;48.812;9.112;2023-03-11T10:42:00;4.70;99.90
6810;DHT22;3443;48.812;9.112;2023-03-11T10:44:40;4.80;99.90
6810;DHT22;3443;48.812;9.112;2023-03-11T10:49:42;5.10;99.90
6810;DHT22;3443;48.812;9.112;2023-03-11T10:52:08;4.60;99.90
6810;DHT22;3443;48.812;9.112;2023-03-11T10:54:39;4.50;99.90
6810;DHT22;3443;48.812;9.112;2023-03-11T10:57:26;4.70;99.90
6810;DHT22;3443;48.812;9.112;2023-03-11T10:59:59;5.20;99.90
6810;DHT22;3443;48.812;9.112;2023-03-11T11:02:30;5.30;99.90
6810;DHT22;3443;48.812;9.112;2023-03-11T11:07:44;5.20;99.90
6810;DHT22;3443;48.812;9.112;2023-03-11T11:12:57;5.00;99.90
6810;DHT22;3443;48.812;9.112;2023-03-11T11:15:32;4.90;99.90
6810;DHT22;3443;48.812;9.112;2023-03-11T11:18:45;5.00;99.90
6810;DHT22;3443;48.812;9.112;2023-03-11T11:21:04;5.20;99.90
6810;DHT22;3443;48.812;9.112;2023-03-11T11:23:35;5.40;99.90
6810;DHT22;3443;48.812;9.112;2023-03-11T11:26:04;5.70;99.90
6810;DHT22;3443;48.812;9.112;2023-03-11T11:28:32;5.80;99.90
6810;DHT22;3443;48.812;9.112;2023-03-11T11:31:00;5.70;99.90
6810;DHT22;3443;48.812;9.112;2023-03-11T11:33:39;5.80;99.90
6810;DHT22;3443;48.812;9.112;2023-03-11T11:36:10;5.80;99.90
6810;DHT22;3443;48.812;9.112;2023-03-11T11:38:37;5.80;99.90
6810;DHT22;3443;48.812;9.112;2023-03-11T11:41:03;5.90;99.90
6810;DHT22;3443;48.812;9.112;2023-03-11T11:46:37;5.60;99.90
6810;DHT22;3443;48.812;9.112;2023-03-11T11:49:17;5.60;99.90
6810;DHT22;3443;48.812;9.112;2023-03-11T11:54:41;5.70;99.90
6810;DHT22;3443;48.812;9.112;2023-03-11T11:57:18;5.90;99.90
6810;DHT22;3443;48.812;9.112;2023-03-11T11:59:45;6.10;99.90
6810;DHT22;3443;48.812;9.112;2023-03-11T12:05:18;6.40;99.90
6810;DHT22;3443;48.812;9.112;2023-03-11T12:07:54;6.40;99.90
6810;DHT22;3443;48.812;9.112;2023-03-11T12:10:31;6.50;99.90
6810;DHT22;3443;48.812;9.112;2023-03-11T12:24:48;6.20;99.90
6810;DHT22;3443;48.812;9.112;2023-03-11T12:27:21;6.20;99.90
6810;DHT22;3443;48.812;9.112;2023-03-11T12:29:51;6.30;99.90
6810;DHT22;3443;48.812;9.112;2023-03-11T12:32:43;6.50;99.90
6810;DHT22;3443;48.812;9.112;2023-03-11T12:35:39;6.70;99.90
6810;DHT22;3443;48.812;9.112;2023-03-11T12:38:19;6.60;99.90
6810;DHT22;3443;48.812;9.112;2023-03-11T12:40:51;6.60;99.90
6810;DHT22;3443;48.812;9.112;2023-03-11T12:46:03;6.00;99.90
6810;DHT22;3443;48.812;9.112;2023-03-11T12:48:33;5.80;99.90
6810;DHT22;3443;48.812;9.112;2023-03-11T12:50:59;5.50;99.90
6810;DHT22;3443;48.812;9.112;2023-03-11T12:53:47;5.70;99.90
6810;DHT22;3443;48.812;9.112;2023-03-11T12:56:28;5.70;99.90
6810;DHT22;3443;48.812;9.112;2023-03-11T13:02:11;5.70;99.90
6810;DHT22;3443;48.812;9.112;2023-03-11T13:07:40;6.30;99.90
6810;DHT22;3443;48.812;9.112;2023-03-11T13:34:23;6.30;99.90
6810;DHT22;3443;48.812;9.112;2023-03-11T13:37:04;6.00;99.90
6810;DHT22;3443;48.812;9.112;2023-03-11T13:44:49;5.50;99.90
6810;DHT22;3443;48.812;9.112;2023-03-11T13:47:16;5.70;99.90
6810;DHT22;3443;48.812;9.112;2023-03-11T13:52:35;6.10;99.90
6810;DHT22;3443;48.812;9.112;2023-03-11T13:57:34;6.30;99.90
6810;DHT22;3443;48.812;9.112;2023-03-11T14:00:14;6.30;99.90
6810;DHT22;3443;48.812;9.112;2023-03-11T14:02:50;6.40;99.90
6810;DHT22;3443;48.812;9.112;2023-03-11T14:05:29;6.40;99.90
6810;DHT22;3443;48.812;9.112;2023-03-11T14:08:20;6.50;99.90
6810;DHT22;3443;48.812;9.112;2023-03-11T14:13:32;6.70;99.90
6810;DHT22;3443;48.812;9.112;2023-03-11T14:18:36;6.60;99.90
6810;DHT22;3443;48.812;9.112;2023-03-11T14:21:04;6.80;99.90
6810;DHT22;3443;48.812;9.112;2023-03-11T14:23:38;6.80;99.90
6810;DHT22;3443;48.812;9.112;2023-03-11T14:26:07;6.70;99.90
6810;DHT22;3443;48.812;9.112;2023-03-11T14:28:36;6.50;99.90
6810;DHT22;3443;48.812;9.112;2023-03-11T14:31:03;6.50;99.90
6810;DHT22;3443;48.812;9.112;2023-03-11T14:33:29;6.40;99.90
6810;DHT22;3443;48.812;9.112;2023-03-11T14:36:01;6.30;99.90
6810;DHT22;3443;48.812;9.112;2023-03-11T14:38:30;6.30;99.90
6810;DHT22;3443;48.812;9.112;2023-03-11T14:41:04;6.40;99.90
6810;DHT22;3443;48.812;9.112;2023-03-11T14:43:34;6.30;99.90
6810;DHT22;3443;48.812;9.112;2023-03-11T14:46:02;6.40;99.90
6810;DHT22;3443;48.812;9.112;2023-03-11T14:50:57;6.50;99.90
6810;DHT22;3443;48.812;9.112;2023-03-11T14:53:27;6.70;99.90
6810;DHT22;3443;48.812;9.112;2023-03-11T15:03:49;6.40;99.90
6810;DHT22;3443;48.812;9.112;2023-03-11T15:06:19;6.30;99.90
6810;DHT22;3443;48.812;9.112;2023-03-11T15:08:56;6.30;99.90
6810;DHT22;3443;48.812;9.112;2023-03-11T15:11:25;6.30;99.90
6810;DHT22;3443;48.812;9.112;2023-03-11T15:13:54;6.30;99.90
6810;DHT22;3443;48.812;9.112;2023-03-11T15:18:47;6.50;99.90
6810;DHT22;3443;48.812;9.112;2023-03-11T15:21:18;6.50;99.90
6810;DHT22;3443;48.812;9.112;2023-03-11T15:23:49;6.40;99.90
6810;DHT22;3443;48.812;9.112;2023-03-11T15:26:22;6.30;99.90
6810;DHT22;3443;48.812;9.112;2023-03-11T15:28:53;6.30;99.90
6810;DHT22;3443;48.812;9.112;2023-03-11T15:33:45;6.20;99.90
6810;DHT22;3443;48.812;9.112;2023-03-11T15:42:02;6.10;99.90
6810;DHT22;3443;48.812;9.112;2023-03-11T15:47:15;6.00;99.90
6810;DHT22;3443;48.812;9.112;2023-03-11T15:49:41;6.00;99.90
6810;DHT22;3443;48.812;9.112;2023-03-11T15:52:07;6.00;99.90
6810;DHT22;3443;48.812;9.112;2023-03-11T15:54:33;5.80;99.90
6810;DHT22;3443;48.812;9.112;2023-03-11T15:57:00;5.80;99.90
6810;DHT22;3443;48.812;9.112;2023-03-11T15:59:28;5.70;99.90
6810;DHT22;3443;48.812;9.112;2023-03-11T16:01:54;5.60;99.90
6810;DHT22;3443;48.812;9.112;2023-03-11T16:04:20;5.50;99.90
6810;DHT22;3443;48.812;9.112;2023-03-11T16:06:46;5.50;99.90
6810;DHT22;3443;48.812;9.112;2023-03-11T16:09:13;5.50;99.90
6810;DHT22;3443;48.812;9.112;2023-03-11T16:11:39;5.60;99.90
6810;DHT22;3443;48.812;9.112;2023-03-11T16:14:08;5.40;99.90
6810;DHT22;3443;48.812;9.112;2023-03-11T16:16:34;5.40;99.90
6810;DHT22;3443;48.812;9.112;2023-03-11T16:19:00;5.30;99.90
6810;DHT22;3443;48.812;9.112;2023-03-11T16:21:33;5.30;99.90
6810;DHT22;3443;48.812;9.112;2023-03-11T16:24:00;5.30;99.90
6810;DHT22;3443;48.812;9.112;2023-03-11T16:26:26;5.20;99.90
6810;DHT22;3443;48.812;9.112;2023-03-11T16:28:51;5.20;99.90
6810;DHT22;3443;48.812;9.112;2023-03-11T16:31:17;5.10;99.90
6810;DHT22;3443;48.812;9.112;2023-03-11T16:33:43;5.10;99.90
6810;DHT22;3443;48.812;9.112;2023-03-11T16:36:09;5.10;99.90
6810;DHT22;3443;48.812;9.112;2023-03-11T16:38:43;5.00;99.90
6810;DHT22;3443;48.812;9.112;2023-03-11T16:41:09;5.00;99.90
6810;DHT22;3443;48.812;9.112;2023-03-11T16:43:35;5.00;99.90
6810;DHT22;3443;48.812;9.112;2023-03-11T16:46:01;4.90;99.90
6810;DHT22;3443;48.812;9.112;2023-03-11T16:48:26;4.90;99.90
6810;DHT22;3443;48.812;9.112;2023-03-11T16:50:52;4.80;99.90
6810;DHT22;3443;48.812;9.112;2023-03-11T16:53:17;4.80;99.90
6810;DHT22;3443;48.812;9.112;2023-03-11T16:55:44;4.80;99.90
6810;DHT22;3443;48.812;9.112;2023-03-11T16:58:10;4.70;99.90
6810;DHT22;3443;48.812;9.112;2023-03-11T17:00:36;4.80;99.90
6810;DHT22;3443;48.812;9.112;2023-03-11T17:03:02;4.80;99.90
6810;DHT22;3443;48.812;9.112;2023-03-11T17:05:28;4.80;99.90
6810;DHT22;3443;48.812;9.112;2023-03-11T17:07:57;4.70;99.90
6810;DHT22;3443;48.812;9.112;2023-03-11T17:10:49;4.70;99.90
6810;DHT22;3443;48.812;9.112;2023-03-11T17:13:16;4.70;99.90
6810;DHT22;3443;48.812;9.112;2023-03-11T17:15:42;4.60;99.90
6810;DHT22;3443;48.812;9.112;2023-03-11T17:18:09;4.60;99.90
6810;DHT22;3443;48.812;9.112;2023-03-11T17:20:38;4.50;99.90
6810;DHT22;3443;48.812;9.112;2023-03-11T17:23:04;4.50;99.90
6810;DHT22;3443;48.812;9.112;2023-03-11T17:25:29;4.40;99.90
6810;DHT22;3443;48.812;9.112;2023-03-11T17:27:56;4.40;99.90
6810;DHT22;3443;48.812;9.112;2023-03-11T17:30:22;4.30;99.90
6810;DHT22;3443;48.812;9.112;2023-03-11T17:32:47;4.30;99.90
6810;DHT22;3443;48.812;9.112;2023-03-11T17:35:13;4.20;99.90
6810;DHT22;3443;48.812;9.112;2023-03-11T17:37:38;4.20;99.90
6810;DHT22;3443;48.812;9.112;2023-03-11T17:40:04;4.10;99.90
6810;DHT22;3443;48.812;9.112;2023-03-11T17:42:30;4.10;99.90
6810;DHT22;3443;48.812;9.112;2023-03-11T17:44:56;4.00;99.90
6810;DHT22;3443;48.812;9.112;2023-03-11T17:47:22;3.90;99.90
6810;DHT22;3443;48.812;9.112;2023-03-11T17:49:51;3.80;99.90
6810;DHT22;3443;48.812;9.112;2023-03-11T17:52:17;3.80;99.90
6810;DHT22;3443;48.812;9.112;2023-03-11T17:54:43;3.70;99.90
6810;DHT22;3443;48.812;9.112;2023-03-11T17:57:09;3.70;99.90
6810;DHT22;3443;48.812;9.112;2023-03-11T17:59:34;3.70;99.90
6810;DHT22;3443;48.812;9.112;2023-03-11T18:02:00;3.60;99.90
6810;DHT22;3443;48.812;9.112;2023-03-11T18:04:25;3.60;99.90
6810;DHT22;3443;48.812;9.112;2023-03-11T18:06:53;3.50;99.90
6810;DHT22;3443;48.812;9.112;2023-03-11T18:09:18;3.50;99.90
6810;DHT22;3443;48.812;9.112;2023-03-11T18:11:44;3.50;99.90
6810;DHT22;3443;48.812;9.112;2023-03-11T18:14:09;3.40;99.90
6810;DHT22;3443;48.812;9.112;2023-03-11T18:16:37;3.50;99.90
6810;DHT22;3443;48.812;9.112;2023-03-11T18:19:02;3.50;99.90
6810;DHT22;3443;48.812;9.112;2023-03-11T18:21:29;3.50;99.90
6810;DHT22;3443;48.812;9.112;2023-03-11T18:23:56;3.50;99.90
6810;DHT22;3443;48.812;9.112;2023-03-11T18:26:23;3.50;99.90
6810;DHT22;3443;48.812;9.112;2023-03-11T18:28:57;3.50;99.90
6810;DHT22;3443;48.812;9.112;2023-03-11T18:31:24;3.40;99.90